createdAt,value
2019-01-15T00:02:33.139Z,3.8
2019-01-15T00:12:38.832Z,3.6
2019-01-15T00:17:40.015Z,3.6
2019-01-15T00:22:42.302Z,3.5
2019-01-15T00:27:44.571Z,3.4
2019-01-15T00:32:48.396Z,3.3
2019-01-15T00:37:49.316Z,3.3
2019-01-15T00:42:51.590Z,3.2
2019-01-15T00:47:53.736Z,3.1
2019-01-15T00:52:56.072Z,3.1
2019-01-15T00:57:58.308Z,3
2019-01-15T01:03:00.755Z,3
2019-01-15T01:08:03.011Z,3
2019-01-15T01:13:05.330Z,3.1
2019-01-15T01:18:07.564Z,3.1
2019-01-15T01:23:11.345Z,3.1
2019-01-15T01:28:12.310Z,3.1
2019-01-15T01:33:14.374Z,3.1
2019-01-15T01:38:16.783Z,3.1
2019-01-15T01:43:19.044Z,3.1
2019-01-15T01:48:21.315Z,3.1
2019-01-15T01:53:23.655Z,3.1
2019-01-15T01:58:25.974Z,3.1
2019-01-15T02:03:28.338Z,3.1
2019-01-15T02:08:30.680Z,3.1
2019-01-15T02:13:32.925Z,3.1
2019-01-15T02:18:35.096Z,3.1
2019-01-15T02:23:37.303Z,3.1
2019-01-15T02:28:39.746Z,3.2
2019-01-15T02:33:42.036Z,3.3
2019-01-15T02:38:44.266Z,3.3
2019-01-15T02:43:46.597Z,3.3
2019-01-15T02:48:48.918Z,3.3
2019-01-15T02:53:51.122Z,3.3
2019-01-15T02:58:53.457Z,3.3
2019-01-15T03:03:55.734Z,3.3
2019-01-15T03:08:58.051Z,3.3
2019-01-15T03:14:00.237Z,3.4
2019-01-15T03:19:02.597Z,3.4
2019-01-15T03:24:04.946Z,3.4
2019-01-15T03:29:07.210Z,3.5
2019-01-15T03:34:09.527Z,3.5
2019-01-15T03:39:11.808Z,3.5
2019-01-15T03:44:14.106Z,3.5
2019-01-15T03:49:16.361Z,3.5
2019-01-15T03:54:19.774Z,3.5
2019-01-15T03:59:20.920Z,3.5
2019-01-15T04:04:23.204Z,3.5
2019-01-15T04:09:25.671Z,3.6
2019-01-15T04:14:27.837Z,3.6
2019-01-15T04:19:30.168Z,3.6
2019-01-15T04:24:32.416Z,3.7
2019-01-15T04:29:34.817Z,3.7
2019-01-15T04:34:36.937Z,3.8
2019-01-15T04:39:39.220Z,3.8
2019-01-15T04:44:41.765Z,3.9
2019-01-15T04:49:43.951Z,3.9
2019-01-15T04:54:46.209Z,3.9
2019-01-15T04:59:48.451Z,4
2019-01-15T05:04:50.842Z,4
2019-01-15T05:09:53.060Z,4.1
2019-01-15T05:14:55.296Z,4.1
2019-01-15T05:19:57.727Z,4.1
2019-01-15T05:24:59.945Z,4.1
2019-01-15T05:30:02.299Z,4.2
2019-01-15T05:35:04.521Z,4.2
2019-01-15T05:40:06.839Z,4.2
2019-01-15T05:45:09.116Z,4.2
2019-01-15T05:50:11.501Z,4.2
2019-01-15T05:55:13.702Z,4.2
2019-01-15T06:00:16.142Z,4.2
2019-01-15T06:05:18.502Z,4.2
2019-01-15T06:10:20.566Z,4.2
2019-01-15T06:15:22.886Z,4.2
2019-01-15T06:20:25.220Z,4.2
2019-01-15T06:25:27.566Z,4.3
2019-01-15T06:30:29.765Z,4.3
2019-01-15T06:35:31.992Z,4.3
2019-01-15T06:40:34.254Z,4.3
2019-01-15T06:45:36.560Z,4.3
2019-01-15T06:50:38.911Z,4.4
2019-01-15T06:55:41.262Z,4.4
2019-01-15T07:00:43.428Z,4.4
2019-01-15T07:05:47.688Z,4.5
2019-01-15T07:10:49.610Z,4.5
2019-01-15T07:15:50.416Z,4.5
2019-01-15T07:20:52.705Z,4.5
2019-01-15T07:25:55.138Z,4.4
2019-01-15T07:30:57.281Z,4.4
2019-01-15T07:35:59.603Z,4.4
2019-01-15T07:41:01.912Z,4.4
2019-01-15T07:46:04.171Z,4.3
2019-01-15T07:51:06.457Z,4.3
2019-01-15T07:56:08.770Z,4.3
2019-01-15T08:01:11.085Z,4.3
2019-01-15T08:06:13.296Z,4.3
2019-01-15T08:11:15.672Z,4.3
2019-01-15T08:16:17.946Z,4.3
2019-01-15T08:21:20.178Z,4.4
2019-01-15T08:26:22.426Z,4.5
2019-01-15T08:31:24.836Z,4.5
2019-01-15T08:36:28.593Z,4.6
2019-01-15T08:41:29.354Z,4.6
2019-01-15T08:46:31.744Z,4.7
2019-01-15T08:51:33.996Z,4.7
2019-01-15T08:56:36.343Z,4.7
2019-01-15T09:01:38.505Z,4.8
2019-01-15T09:06:40.877Z,4.9
2019-01-15T09:11:43.082Z,4.9
2019-01-15T09:16:45.422Z,4.9
2019-01-15T09:26:52.387Z,5
2019-01-15T09:37:20.868Z,5.1
2019-01-15T09:42:23.109Z,5.1
2019-01-15T09:47:25.530Z,5.2
2019-01-15T09:52:27.750Z,5.2
2019-01-15T09:57:29.940Z,5.3
2019-01-15T10:02:32.367Z,5.4
2019-01-15T10:07:34.611Z,5.5
2019-01-15T10:12:36.941Z,5.6
2019-01-15T10:17:39.276Z,5.7
2019-01-15T10:22:41.506Z,5.8
2019-01-15T10:27:43.828Z,5.9
2019-01-15T10:32:46.230Z,6
2019-01-15T10:37:48.308Z,6.1
2019-01-15T10:42:50.690Z,6.2
2019-01-15T10:47:53.016Z,6.2
2019-01-15T10:52:55.239Z,6.3
2019-01-15T10:57:58.463Z,6.5
2019-01-15T11:03:00.081Z,6.6
2019-01-15T11:08:02.231Z,6.6
2019-01-15T11:13:04.502Z,6.6
2019-01-15T11:18:06.748Z,6.6
2019-01-15T11:23:09.012Z,6.6
2019-01-15T11:28:11.359Z,6.6
2019-01-15T11:33:13.762Z,6.6
2019-01-15T11:38:16.013Z,6.6
2019-01-15T11:43:18.236Z,6.6
2019-01-15T11:48:20.562Z,6.6
2019-01-15T11:53:22.806Z,6.7
2019-01-15T11:58:25.019Z,6.7
2019-01-15T12:03:27.399Z,6.8
2019-01-15T12:08:29.675Z,6.8
2019-01-15T12:13:31.902Z,6.8
2019-01-15T12:18:34.282Z,6.8
2019-01-15T12:23:36.576Z,6.8
2019-01-15T12:28:38.855Z,6.9
2019-01-15T12:33:41.225Z,6.9
2019-01-15T12:38:43.528Z,6.9
2019-01-15T12:43:45.746Z,6.9
2019-01-15T12:48:47.994Z,6.9
2019-01-15T12:53:50.322Z,6.9
2019-01-15T12:58:52.605Z,6.9
2019-01-15T13:03:54.930Z,7
2019-01-15T13:08:57.375Z,7
2019-01-15T13:13:59.449Z,7
2019-01-15T13:19:01.796Z,6.9
2019-01-15T13:24:04.120Z,6.9
2019-01-15T13:29:06.422Z,6.9
2019-01-15T13:34:08.666Z,6.9
2019-01-15T13:39:10.991Z,6.9
2019-01-15T13:44:13.242Z,6.9
2019-01-15T13:49:15.609Z,7
2019-01-15T13:54:17.854Z,7
2019-01-15T13:59:20.144Z,7
2019-01-15T14:04:22.508Z,7
2019-01-15T14:09:24.754Z,7
2019-01-15T14:14:27.083Z,7
2019-01-15T14:19:29.503Z,7
2019-01-15T14:24:31.705Z,7.1
2019-01-15T14:29:33.811Z,7.1
2019-01-15T14:34:36.176Z,7.2
2019-01-15T14:39:38.543Z,7.2
2019-01-15T14:44:41.150Z,7.2
2019-01-15T14:49:42.996Z,7.2
2019-01-15T14:54:45.313Z,7.2
2019-01-15T14:59:47.664Z,7.2
2019-01-15T15:04:50.007Z,7.2
2019-01-15T15:09:52.285Z,7.2
2019-01-15T15:14:54.683Z,7.2
2019-01-15T15:19:56.859Z,7.2
2019-01-15T15:24:59.254Z,7.2
2019-01-15T15:30:01.441Z,7.2
2019-01-15T15:35:09.477Z,7.1
2019-01-15T15:40:05.991Z,7.1
2019-01-15T15:45:08.280Z,7.1
2019-01-15T15:50:10.728Z,7
2019-01-15T15:55:12.824Z,7
2019-01-15T16:00:15.142Z,7
2019-01-15T16:05:17.460Z,6.9
2019-01-15T16:10:19.833Z,6.9
2019-01-15T16:15:21.999Z,6.9
2019-01-15T16:20:24.401Z,6.9
2019-01-15T16:25:26.662Z,6.8
2019-01-15T16:30:28.890Z,6.8
2019-01-15T16:35:31.343Z,6.8
2019-01-15T16:40:33.566Z,6.8
2019-01-15T16:45:35.762Z,6.8
2019-01-15T16:50:38.241Z,6.8
2019-01-15T16:55:40.361Z,6.8
2019-01-15T17:00:42.779Z,6.8
2019-01-15T17:05:44.968Z,6.8
2019-01-15T17:10:47.364Z,6.8
2019-01-15T17:15:49.673Z,6.8
2019-01-15T17:20:51.799Z,6.8
2019-01-15T17:25:54.279Z,6.7
2019-01-15T17:30:56.399Z,6.7
2019-01-15T17:35:58.705Z,6.7
2019-01-15T17:41:01.136Z,6.7
2019-01-15T17:46:03.364Z,6.7
2019-01-15T17:51:05.694Z,6.7
2019-01-15T17:56:07.883Z,6.7
2019-01-15T18:01:10.305Z,6.7
2019-01-15T18:06:12.462Z,6.7
2019-01-15T18:11:14.967Z,6.7
2019-01-15T18:16:17.144Z,6.8
2019-01-15T18:21:19.421Z,6.8
2019-01-15T18:26:21.763Z,6.8
2019-01-15T18:31:24.076Z,6.8
2019-01-15T18:36:26.352Z,6.8
2019-01-15T18:41:28.636Z,6.8
2019-01-15T18:46:30.994Z,6.8
2019-01-15T18:51:33.183Z,6.8
2019-01-15T18:56:35.483Z,6.8
2019-01-15T19:01:37.784Z,6.7
2019-01-15T19:06:40.277Z,6.7
2019-01-15T19:11:42.348Z,6.7
2019-01-15T19:16:44.633Z,6.7
2019-01-15T19:21:46.872Z,6.7
2019-01-15T19:26:49.316Z,6.7
2019-01-15T19:31:51.507Z,6.7
2019-01-15T19:36:53.778Z,6.6
2019-01-15T19:41:56.180Z,6.7
2019-01-15T19:46:58.386Z,6.6
2019-01-15T19:52:00.669Z,6.7
2019-01-15T19:57:02.969Z,6.7
2019-01-15T20:02:05.293Z,6.6
2019-01-15T20:07:07.577Z,6.6
2019-01-15T20:12:09.905Z,6.6
2019-01-15T20:17:18.378Z,6.6
2019-01-15T20:22:14.383Z,6.7
2019-01-15T20:27:16.715Z,6.8
2019-01-15T20:32:19.097Z,6.8
2019-01-15T20:37:21.310Z,6.8
2019-01-15T20:42:23.600Z,6.8
2019-01-15T20:47:25.967Z,6.8
2019-01-15T20:52:28.296Z,6.8
2019-01-15T20:57:30.537Z,6.7
2019-01-15T21:02:32.784Z,6.8
2019-01-15T21:07:35.192Z,6.8
2019-01-15T21:12:37.351Z,6.7
2019-01-15T21:17:39.684Z,6.7
2019-01-15T21:22:41.934Z,6.6
2019-01-15T21:27:44.259Z,6.6
2019-01-15T21:32:46.590Z,6.5
2019-01-15T21:37:48.770Z,6.5
2019-01-15T21:42:51.311Z,6.5
2019-01-15T21:47:53.513Z,6.4
2019-01-15T21:52:55.723Z,6.4
2019-01-15T21:57:58.154Z,6.3
2019-01-15T22:03:00.374Z,6.3
2019-01-15T22:08:02.643Z,6.3
2019-01-15T22:13:04.992Z,6.3
2019-01-15T22:18:07.267Z,6.3
2019-01-15T22:23:09.547Z,6.3
2019-01-15T22:28:11.775Z,6.2
2019-01-15T22:33:14.106Z,6.2
2019-01-15T22:38:16.432Z,6.2
2019-01-15T22:43:18.692Z,6.2
2019-01-15T22:48:20.999Z,6.2
2019-01-15T22:53:23.373Z,6.1
2019-01-15T22:58:25.486Z,6.1
2019-01-15T23:03:27.904Z,6.1
2019-01-15T23:08:30.211Z,6.1
2019-01-15T23:13:32.499Z,6.1
2019-01-15T23:18:34.724Z,6.1
2019-01-15T23:23:37.053Z,6.1
2019-01-15T23:28:39.360Z,6
2019-01-15T23:33:41.599Z,6
2019-01-15T23:38:43.922Z,6
2019-01-15T23:43:46.349Z,5.9
2019-01-15T23:48:48.524Z,5.9
2019-01-15T23:53:51.007Z,5.9
2019-01-15T23:58:53.203Z,5.9
